Terminal Aerodrome Forecast
Issued by NWS

Home | Current Version | Previous Version | Text Only | Print | Product List | Glossary Off
Versions: 1 2 3 4 5 6 7 8 9 10 11 12 13 14 15 16 17 18 19 20 21

000
FTUS43 KGRB 052008 AAD
TAFRHI
TAF AMD
KRHI 052008Z 0520/0618 17006KT P6SM BKN070
     FM052300 18008KT P6SM OVC010
     FM061000 20007KT 3SM -SN OVC003
     FM061600 23008KT 5SM -SHSN OVC007=

USA.gov is the U.S. government's official web portal to all federal, state and local government web resources and services.